createdAt,value
2023-11-29T00:03:17.321Z,84.93
2023-11-29T00:08:21.158Z,85.24
2023-11-29T00:13:23.373Z,85.20
2023-11-29T00:18:25.653Z,84.96
2023-11-29T00:23:27.785Z,85.14
2023-11-29T00:28:34.482Z,84.85
2023-11-29T00:33:36.566Z,84.79
2023-11-29T00:38:38.699Z,85.05
2023-11-29T00:43:40.743Z,85.27
2023-11-29T00:48:42.836Z,85.44
2023-11-29T00:53:45.282Z,85.52
2023-11-29T00:58:47.372Z,85.21
2023-11-29T01:03:49.571Z,85.07
2023-11-29T01:08:52.483Z,85.18
2023-11-29T01:13:54.792Z,85.30
2023-11-29T01:18:58.954Z,85.49
2023-11-29T01:24:01.386Z,85.14
2023-11-29T01:29:03.533Z,85.56
2023-11-29T01:34:05.770Z,85.63
2023-11-29T01:39:08.225Z,85.58
2023-11-29T01:44:10.623Z,85.69
2023-11-29T01:49:13.743Z,85.61
2023-11-29T01:54:17.508Z,85.28
2023-11-29T01:59:19.770Z,85.00
2023-11-29T02:04:22.077Z,85.48
2023-11-29T02:09:25.061Z,85.13
2023-11-29T02:14:27.216Z,85.36
2023-11-29T02:19:29.387Z,85.10
2023-11-29T02:24:40.794Z,85.09
2023-11-29T02:29:44.109Z,84.95
2023-11-29T02:34:46.152Z,85.04
2023-11-29T02:39:48.212Z,84.98
2023-11-29T02:44:50.802Z,84.84
2023-11-29T02:49:52.919Z,84.88
2023-11-29T02:54:55.046Z,84.74
2023-11-29T02:59:57.231Z,84.76
2023-11-29T03:04:59.349Z,84.68
2023-11-29T03:10:01.389Z,85.18
2023-11-29T03:15:03.685Z,84.79
2023-11-29T03:20:09.075Z,84.60
2023-11-29T03:25:11.189Z,84.76
2023-11-29T03:30:14.038Z,84.73
2023-11-29T03:35:16.265Z,84.85
2023-11-29T03:40:18.389Z,84.84
2023-11-29T03:45:20.574Z,85.14
2023-11-29T03:50:23.563Z,85.15
2023-11-29T03:55:25.785Z,85.46
2023-11-29T04:00:27.852Z,85.26
2023-11-29T04:05:30.128Z,85.39
2023-11-29T04:10:35.344Z,85.34
2023-11-29T04:15:37.920Z,85.36
2023-11-29T04:20:40.253Z,85.34
2023-11-29T04:25:42.503Z,85.27
2023-11-29T04:30:44.927Z,85.25
2023-11-29T04:35:47.172Z,85.44
2023-11-29T04:40:49.409Z,85.06
2023-11-29T04:45:51.754Z,85.40
2023-11-29T04:50:53.850Z,85.26
2023-11-29T04:55:57.067Z,85.52
2023-11-29T05:00:59.108Z,85.32
2023-11-29T05:06:01.189Z,85.35
2023-11-29T05:11:08.339Z,84.92
2023-11-29T05:16:10.606Z,85.24
2023-11-29T05:21:12.745Z,85.02
2023-11-29T05:26:15.637Z,85.39
2023-11-29T05:31:19.645Z,85.35
2023-11-29T05:36:22.792Z,85.37
2023-11-29T05:41:24.992Z,85.47
2023-11-29T05:46:29.778Z,85.47
2023-11-29T05:51:31.968Z,85.35
2023-11-29T05:56:34.027Z,85.18
2023-11-29T06:01:38.287Z,85.48
2023-11-29T06:06:40.428Z,85.44
2023-11-29T06:11:42.872Z,85.00
2023-11-29T06:16:45.050Z,85.27
2023-11-29T06:21:47.661Z,85.15
2023-11-29T06:26:50.651Z,85.11
2023-11-29T06:31:52.873Z,85.35
2023-11-29T06:36:55.165Z,85.30
2023-11-29T06:41:57.211Z,85.45
2023-11-29T06:47:00.400Z,85.64
2023-11-29T06:52:04.835Z,85.44
2023-11-29T06:57:07.082Z,85.64
2023-11-29T07:02:09.278Z,85.37
2023-11-29T07:07:12.522Z,85.51
2023-11-29T07:12:14.713Z,85.50
2023-11-29T07:17:16.964Z,85.63
2023-11-29T07:22:19.601Z,85.35
2023-11-29T07:27:21.837Z,85.63
2023-11-29T07:32:25.995Z,85.19
2023-11-29T07:37:28.901Z,85.15
2023-11-29T07:43:01.895Z,85.05
2023-11-29T07:48:34.239Z,85.14
2023-11-29T07:53:36.663Z,84.78
2023-11-29T07:58:39.465Z,84.79
2023-11-29T08:03:42.002Z,84.94
2023-11-29T08:08:44.230Z,84.79
2023-11-29T08:13:46.408Z,85.08
2023-11-29T08:18:48.542Z,84.51
2023-11-29T08:23:50.793Z,84.43
2023-11-29T08:28:52.967Z,84.31
2023-11-29T08:33:55.124Z,84.38
2023-11-29T08:38:57.820Z,84.20
2023-11-29T08:44:00.010Z,83.99
2023-11-29T08:49:02.178Z,83.76
2023-11-29T08:54:05.174Z,84.11
2023-11-29T08:59:07.382Z,83.74
2023-11-29T09:04:09.467Z,83.37
2023-11-29T09:09:13.687Z,83.45
2023-11-29T09:14:15.788Z,83.51
2023-11-29T09:19:18.018Z,83.64
2023-11-29T09:24:20.125Z,83.32
2023-11-29T09:29:27.414Z,83.14
2023-11-29T09:34:29.808Z,83.20
2023-11-29T09:39:32.014Z,83.21
2023-11-29T09:44:37.878Z,83.55
2023-11-29T09:49:40.451Z,83.75
2023-11-29T09:54:44.318Z,83.07
2023-11-29T09:59:46.450Z,83.03
2023-11-29T10:04:48.861Z,83.04
2023-11-29T10:09:51.098Z,82.86
2023-11-29T10:15:01.490Z,82.53
2023-11-29T10:20:09.228Z,82.22
2023-11-29T10:25:19.018Z,81.61
2023-11-29T10:30:21.391Z,82.13
2023-11-29T10:35:26.396Z,81.98
2023-11-29T10:40:29.453Z,81.91
2023-11-29T10:45:36.325Z,81.75
2023-11-29T10:50:40.424Z,81.56
2023-11-29T10:55:45.392Z,81.20
2023-11-29T11:00:47.779Z,81.52
2023-11-29T11:05:50.102Z,82.18
2023-11-29T11:10:52.578Z,81.25
2023-11-29T11:15:57.240Z,80.97
2023-11-29T11:21:01.388Z,81.01
2023-11-29T11:26:11.258Z,80.42
2023-11-29T11:31:13.833Z,79.85
2023-11-29T11:36:18.217Z,79.64
2023-11-29T11:41:20.624Z,80.48
2023-11-29T11:46:22.993Z,80.55
2023-11-29T11:51:25.158Z,80.47
2023-11-29T11:56:28.544Z,80.53
2023-11-29T12:01:32.006Z,79.94
2023-11-29T12:06:34.561Z,80.03
2023-11-29T12:11:38.448Z,79.76
2023-11-29T12:16:40.706Z,79.65
2023-11-29T12:21:44.444Z,79.22
2023-11-29T12:26:48.227Z,79.07
2023-11-29T12:31:53.402Z,79.25
2023-11-29T12:36:58.860Z,79.48
2023-11-29T12:42:04.746Z,79.10
2023-11-29T12:47:07.354Z,78.78
2023-11-29T12:52:09.486Z,79.02
2023-11-29T12:57:12.407Z,78.91
2023-11-29T13:02:14.733Z,78.94
2023-11-29T13:07:16.998Z,78.97
2023-11-29T13:12:19.512Z,78.53
2023-11-29T13:17:24.470Z,78.09
2023-11-29T13:22:26.945Z,78.54
2023-11-29T13:27:29.529Z,78.89
2023-11-29T13:32:32.352Z,78.59
2023-11-29T13:37:34.730Z,78.65
2023-11-29T13:42:36.994Z,78.38
2023-11-29T13:47:40.856Z,78.58
2023-11-29T13:52:43.752Z,78.85
2023-11-29T13:57:46.585Z,78.51
2023-11-29T14:02:49.308Z,78.05
2023-11-29T14:07:52.822Z,78.72
2023-11-29T14:12:56.459Z,78.38
2023-11-29T14:17:59.129Z,78.61
2023-11-29T14:23:01.395Z,78.75
2023-11-29T14:28:06.684Z,79.04
2023-11-29T14:33:14.642Z,78.85
2023-11-29T14:38:16.860Z,78.36
2023-11-29T14:43:19.204Z,78.56
2023-11-29T14:48:22.615Z,78.74
2023-11-29T14:53:24.848Z,78.37
2023-11-29T14:58:27.189Z,78.88
2023-11-29T15:03:29.994Z,79.18
2023-11-29T15:08:32.392Z,79.00
2023-11-29T15:13:39.050Z,79.42
2023-11-29T15:18:44.317Z,79.36
2023-11-29T15:23:46.724Z,79.22
2023-11-29T15:28:49.463Z,79.45
2023-11-29T15:33:51.746Z,79.47
2023-11-29T15:38:54.208Z,79.73
2023-11-29T15:43:56.318Z,79.82
2023-11-29T15:48:58.718Z,79.95
2023-11-29T15:54:00.886Z,79.93
2023-11-29T15:59:03.150Z,80.11
2023-11-29T16:04:05.845Z,80.37
2023-11-29T16:09:09.207Z,80.13
2023-11-29T16:14:11.495Z,80.52
2023-11-29T16:19:13.584Z,80.52
2023-11-29T16:24:15.834Z,80.63
2023-11-29T16:29:17.988Z,81.06
2023-11-29T16:34:20.369Z,80.82
2023-11-29T16:39:22.577Z,81.22
2023-11-29T16:44:24.794Z,81.12
2023-11-29T16:49:27.063Z,81.07
2023-11-29T16:54:29.301Z,81.50
2023-11-29T16:59:31.615Z,81.64
2023-11-29T17:04:33.787Z,81.66
2023-11-29T17:09:36.172Z,81.68
2023-11-29T17:14:38.426Z,81.78
2023-11-29T17:19:40.554Z,81.84
2023-11-29T17:24:43.304Z,81.83
2023-11-29T17:29:45.623Z,82.12
2023-11-29T17:34:48.471Z,82.31
2023-11-29T17:39:50.639Z,82.50
2023-11-29T17:44:53.146Z,82.43
2023-11-29T17:49:56.301Z,82.53
2023-11-29T17:54:58.508Z,82.87
2023-11-29T18:00:01.501Z,83.12
2023-11-29T18:05:03.782Z,82.65
2023-11-29T18:10:06.263Z,82.70
2023-11-29T18:15:08.970Z,82.54
2023-11-29T18:20:12.221Z,82.86
2023-11-29T18:25:14.531Z,83.02
2023-11-29T18:30:17.106Z,82.71
2023-11-29T18:35:19.360Z,82.68
2023-11-29T18:40:21.524Z,82.94
2023-11-29T18:45:23.590Z,82.77
2023-11-29T18:50:25.657Z,83.09
2023-11-29T18:55:30.532Z,83.03
2023-11-29T19:00:32.736Z,83.25
2023-11-29T19:05:35.479Z,83.53
2023-11-29T19:10:37.572Z,83.53
2023-11-29T19:15:39.783Z,83.17
2023-11-29T19:20:42.048Z,83.09
2023-11-29T19:25:44.749Z,83.14
2023-11-29T19:30:47.086Z,83.32
2023-11-29T19:35:49.404Z,83.07
2023-11-29T19:40:51.679Z,83.26
2023-11-29T19:45:56.060Z,83.45
2023-11-29T19:50:58.200Z,83.38
2023-11-29T19:56:00.253Z,83.55
2023-11-29T20:01:02.545Z,83.42
2023-11-29T20:06:05.081Z,83.38
2023-11-29T20:11:08.584Z,83.30
2023-11-29T20:16:11.657Z,83.27
2023-11-29T20:21:14.207Z,83.27
2023-11-29T20:26:16.236Z,83.25
2023-11-29T20:31:24.839Z,83.46
2023-11-29T20:36:27.198Z,83.65
2023-11-29T20:41:32.111Z,83.61
2023-11-29T20:46:34.104Z,83.90
2023-11-29T20:51:36.179Z,84.34
2023-11-29T20:56:38.104Z,83.90
2023-11-29T21:01:40.825Z,83.80
2023-11-29T21:06:42.818Z,83.73
2023-11-29T21:11:44.795Z,83.56
2023-11-29T21:16:47.225Z,83.81
2023-11-29T21:21:49.184Z,83.50
2023-11-29T21:26:51.238Z,83.58
2023-11-29T21:31:54.372Z,83.24
2023-11-29T21:36:56.542Z,83.14
2023-11-29T21:41:58.800Z,82.79
2023-11-29T21:47:01.371Z,82.70
2023-11-29T21:52:03.551Z,82.72
2023-11-29T21:57:05.532Z,82.67
2023-11-29T22:02:08.223Z,82.77
2023-11-29T22:07:14.671Z,82.82
2023-11-29T22:12:16.799Z,82.40
2023-11-29T22:17:18.969Z,82.96
2023-11-29T22:22:20.922Z,83.02
2023-11-29T22:27:22.932Z,82.55
2023-11-29T22:32:25.525Z,82.50
2023-11-29T22:37:29.078Z,82.71
2023-11-29T22:42:31.097Z,82.68
2023-11-29T22:47:33.139Z,82.30
2023-11-29T22:52:35.111Z,82.49
2023-11-29T22:57:37.217Z,82.55
2023-11-29T23:02:39.379Z,82.24
2023-11-29T23:07:41.483Z,82.15
2023-11-29T23:12:44.585Z,82.37
2023-11-29T23:17:46.642Z,82.40
2023-11-29T23:22:49.494Z,82.49
2023-11-29T23:27:52.010Z,82.56
2023-11-29T23:32:54.535Z,82.66
2023-11-29T23:37:56.717Z,82.44
2023-11-29T23:42:59.048Z,82.86
2023-11-29T23:48:02.542Z,82.64
2023-11-29T23:53:04.843Z,82.72
2023-11-29T23:58:06.980Z,82.64
